createdAt,value
2023-05-09T00:00:46.510Z,44.85
2023-05-09T00:03:14.350Z,43.40
2023-05-09T00:05:41.746Z,51.10
2023-05-09T00:08:08.727Z,47.47
2023-05-09T00:10:35.925Z,45.00
2023-05-09T00:13:03.081Z,44.75
2023-05-09T00:15:30.487Z,51.33
2023-05-09T00:17:57.405Z,43.90
2023-05-09T00:20:24.266Z,46.55
2023-05-09T00:22:51.075Z,44.70
2023-05-09T00:25:17.957Z,46.05
2023-05-09T00:27:44.780Z,47.65
2023-05-09T00:30:11.904Z,46.22
2023-05-09T00:32:40.207Z,45.97
2023-05-09T00:35:09.870Z,48.65
2023-05-09T00:37:36.826Z,43.95
2023-05-09T00:40:06.389Z,44.10
2023-05-09T00:42:33.657Z,46.55
2023-05-09T00:45:00.584Z,47.83
2023-05-09T00:47:29.271Z,49.50
2023-05-09T00:49:58.045Z,46.20
2023-05-09T00:52:26.082Z,43.95
2023-05-09T00:54:54.897Z,46.55
2023-05-09T00:57:24.798Z,48.38
2023-05-09T00:59:51.671Z,49.22
2023-05-09T01:02:19.149Z,49.85
2023-05-09T01:04:46.831Z,46.72
2023-05-09T01:07:52.087Z,49.33
2023-05-09T01:10:55.841Z,48.80
2023-05-09T01:13:47.374Z,49.45
2023-05-09T01:16:41.605Z,49.53
2023-05-09T01:19:53.311Z,49.65
2023-05-09T01:22:30.241Z,47.58
2023-05-09T01:25:38.857Z,48.85
2023-05-09T01:28:44.548Z,49.10
2023-05-09T01:31:12.131Z,51.35
2023-05-09T01:33:43.384Z,50.97
2023-05-09T01:36:18.095Z,53.78
2023-05-09T01:38:50.229Z,51.03
2023-05-09T01:41:19.163Z,49.60
2023-05-09T01:43:48.832Z,51.38
2023-05-09T01:46:19.407Z,50.03
2023-05-09T01:48:48.189Z,50.83
2023-05-09T01:51:16.522Z,53.13
2023-05-09T01:53:46.480Z,47.47
2023-05-09T01:56:14.834Z,48.65
2023-05-09T01:58:45.271Z,48.75
2023-05-09T02:01:14.686Z,49.40
2023-05-09T02:03:43.107Z,47.85
2023-05-09T02:06:11.354Z,50.38
2023-05-09T02:08:38.930Z,53.63
2023-05-09T02:11:06.858Z,50.90
2023-05-09T02:13:33.860Z,52.47
2023-05-09T02:16:01.701Z,49.00
2023-05-09T02:18:29.406Z,47.70
2023-05-09T02:20:56.370Z,51.05
2023-05-09T02:23:23.319Z,49.10
2023-05-09T02:25:51.412Z,46.92
2023-05-09T02:28:20.769Z,45.75
2023-05-09T02:30:50.227Z,46.22
2023-05-09T02:33:17.877Z,51.25
2023-05-09T02:35:46.574Z,45.90
2023-05-09T02:38:14.728Z,51.85
2023-05-09T02:40:44.311Z,48.28
2023-05-09T02:43:11.250Z,48.53
2023-05-09T02:45:38.140Z,48.45
2023-05-09T02:48:08.363Z,45.70
2023-05-09T02:50:38.114Z,47.17
2023-05-09T02:53:05.430Z,47.03
2023-05-09T02:55:32.221Z,44.95
2023-05-09T02:58:09.704Z,45.25
2023-05-09T03:00:40.132Z,41.05
2023-05-09T03:03:08.128Z,43.90
2023-05-09T03:05:35.158Z,45.45
2023-05-09T03:08:02.058Z,42.75
2023-05-09T03:10:28.889Z,43.05
2023-05-09T03:12:55.796Z,42.15
2023-05-09T03:15:23.094Z,42.10
2023-05-09T03:17:50.088Z,42.58
2023-05-09T03:20:17.230Z,42.00
2023-05-09T03:22:44.057Z,40.10
2023-05-09T03:25:12.223Z,39.78
2023-05-09T03:27:39.156Z,43.22
2023-05-09T03:30:09.995Z,39.30
2023-05-09T03:32:37.024Z,39.83
2023-05-09T03:35:04.246Z,38.10
2023-05-09T03:37:32.454Z,37.92
2023-05-09T03:39:59.352Z,37.38
2023-05-09T03:42:26.942Z,43.03
2023-05-09T03:44:59.534Z,37.63
2023-05-09T03:47:26.370Z,38.47
2023-05-09T03:49:53.663Z,38.50
2023-05-09T03:52:22.717Z,39.33
2023-05-09T03:54:49.541Z,36.92
2023-05-09T03:57:16.840Z,39.80
2023-05-09T03:59:45.276Z,37.28
2023-05-09T04:02:13.747Z,36.58
2023-05-09T04:04:40.649Z,36.65
2023-05-09T04:07:08.947Z,42.67
2023-05-09T04:09:36.029Z,35.63
2023-05-09T04:12:02.860Z,37.65
2023-05-09T04:14:29.753Z,37.80
2023-05-09T04:16:56.798Z,35.45
2023-05-09T04:19:23.704Z,34.65
2023-05-09T04:21:50.715Z,33.25
2023-05-09T04:24:17.886Z,33.33
2023-05-09T04:26:47.618Z,38.53
2023-05-09T04:29:17.995Z,32.80
2023-05-09T04:31:50.625Z,33.28
2023-05-09T04:34:18.632Z,32.38
2023-05-09T04:36:45.615Z,33.63
2023-05-09T04:39:12.900Z,34.40
2023-05-09T04:41:47.750Z,34.85
2023-05-09T04:44:17.138Z,29.23
2023-05-09T04:46:44.888Z,29.90
2023-05-09T04:49:12.215Z,27.08
2023-05-09T04:51:38.960Z,28.73
2023-05-09T04:54:06.719Z,30.70
2023-05-09T04:56:36.792Z,28.65
2023-05-09T04:59:03.620Z,26.58
2023-05-09T05:01:30.878Z,28.23
2023-05-09T05:03:58.473Z,28.55
2023-05-09T05:06:25.385Z,25.40
2023-05-09T05:08:52.313Z,27.05
2023-05-09T05:11:20.385Z,27.17
2023-05-09T05:13:47.533Z,24.95
2023-05-09T05:16:14.364Z,26.00
2023-05-09T05:18:41.695Z,26.80
2023-05-09T05:21:09.104Z,23.10
2023-05-09T05:23:36.503Z,25.10
2023-05-09T05:26:03.743Z,24.30
2023-05-09T05:28:32.283Z,24.20
2023-05-09T05:30:59.277Z,22.17
2023-05-09T05:33:26.314Z,24.42
2023-05-09T05:35:53.491Z,20.77
2023-05-09T05:38:21.076Z,23.77
2023-05-09T05:40:52.314Z,23.63
2023-05-09T05:43:20.133Z,24.83
2023-05-09T05:45:46.959Z,24.00
2023-05-09T05:48:17.501Z,25.75
2023-05-09T05:50:45.777Z,24.17
2023-05-09T05:53:15.289Z,24.60
2023-05-09T05:55:42.160Z,26.92
2023-05-09T05:58:09.092Z,20.80
2023-05-09T06:00:36.166Z,21.08
2023-05-09T06:03:06.003Z,24.90
2023-05-09T06:05:48.391Z,23.15
2023-05-09T06:08:15.553Z,24.92
2023-05-09T06:10:42.365Z,20.85
2023-05-09T06:13:09.285Z,19.92
2023-05-09T06:15:38.413Z,20.83
2023-05-09T06:18:05.692Z,22.85
2023-05-09T06:20:32.762Z,22.05
2023-05-09T06:22:59.556Z,21.02
2023-05-09T06:25:26.373Z,20.15
2023-05-09T06:27:53.174Z,22.08
2023-05-09T06:30:26.263Z,20.17
2023-05-09T06:32:54.940Z,23.92
2023-05-09T06:35:22.150Z,24.40
2023-05-09T06:37:49.653Z,20.90
2023-05-09T06:40:17.318Z,24.27
2023-05-09T06:42:44.938Z,22.92
2023-05-09T06:45:12.309Z,22.40
2023-05-09T06:47:39.369Z,25.50
2023-05-09T06:50:07.225Z,21.52
2023-05-09T06:52:34.110Z,20.55
2023-05-09T06:55:00.836Z,19.63
2023-05-09T06:57:27.647Z,20.52
2023-05-09T06:59:54.451Z,22.65
2023-05-09T07:02:21.260Z,21.02
2023-05-09T07:04:48.311Z,24.13
2023-05-09T07:07:16.180Z,21.70
2023-05-09T07:09:42.988Z,20.98
2023-05-09T07:12:09.884Z,22.33
2023-05-09T07:14:36.637Z,19.77
2023-05-09T07:17:21.326Z,19.63
2023-05-09T07:19:50.481Z,22.70
2023-05-09T07:22:17.338Z,25.75
2023-05-09T07:24:44.477Z,21.52
2023-05-09T07:27:11.301Z,22.52
2023-05-09T07:29:38.225Z,21.35
2023-05-09T07:32:05.393Z,18.65
2023-05-09T07:34:32.227Z,20.10
2023-05-09T07:36:59.143Z,16.55
2023-05-09T07:39:26.100Z,18.25
2023-05-09T07:41:52.925Z,20.52
2023-05-09T07:44:19.751Z,18.17
2023-05-09T07:46:46.690Z,20.02
2023-05-09T07:49:13.418Z,17.98
2023-05-09T07:51:41.327Z,17.48
2023-05-09T07:54:10.038Z,18.67
2023-05-09T07:56:36.958Z,18.52
2023-05-09T07:59:03.837Z,20.50
2023-05-09T08:01:30.812Z,15.73
2023-05-09T08:03:57.716Z,20.48
2023-05-09T08:06:24.594Z,18.88
2023-05-09T08:08:51.386Z,17.42
2023-05-09T08:11:18.622Z,18.77
2023-05-09T08:13:45.943Z,18.60
2023-05-09T08:16:12.789Z,19.77
2023-05-09T08:18:39.568Z,19.48
2023-05-09T08:21:06.733Z,17.00
2023-05-09T08:23:33.622Z,16.02
2023-05-09T08:26:00.477Z,16.30
2023-05-09T08:28:28.610Z,18.13
2023-05-09T08:30:56.834Z,14.80
2023-05-09T08:33:24.309Z,14.43
2023-05-09T08:35:54.804Z,14.88
2023-05-09T08:38:22.247Z,13.40
2023-05-09T08:40:48.986Z,14.55
2023-05-09T08:43:19.142Z,13.25
2023-05-09T08:46:00.288Z,12.75
2023-05-09T08:48:30.122Z,11.50
2023-05-09T08:50:58.822Z,11.57
2023-05-09T08:53:26.698Z,13.48
2023-05-09T08:55:54.164Z,9.77
2023-05-09T08:58:22.774Z,12.30
2023-05-09T09:00:52.927Z,11.23
2023-05-09T09:03:20.317Z,14.35
2023-05-09T09:05:49.140Z,12.15
2023-05-09T09:08:16.819Z,11.82
2023-05-09T09:10:48.557Z,10.50
2023-05-09T09:13:17.456Z,11.88
2023-05-09T09:15:48.109Z,10.68
2023-05-09T09:18:30.337Z,11.38
2023-05-09T09:21:09.889Z,11.10
2023-05-09T09:23:43.651Z,12.07
2023-05-09T09:26:10.489Z,12.82
2023-05-09T09:28:37.373Z,10.30
2023-05-09T09:31:20.747Z,13.65
2023-05-09T09:33:48.942Z,11.60
2023-05-09T09:36:16.034Z,10.75
2023-05-09T09:38:44.541Z,10.85
2023-05-09T09:41:12.846Z,9.88
2023-05-09T09:43:46.101Z,13.45
2023-05-09T09:46:16.294Z,10.13
2023-05-09T09:48:52.811Z,9.63
2023-05-09T09:51:20.973Z,10.18
2023-05-09T09:53:47.745Z,10.35
2023-05-09T09:56:14.636Z,9.85
2023-05-09T09:58:41.499Z,10.50
2023-05-09T10:01:16.758Z,9.65
2023-05-09T10:03:46.190Z,10.18
2023-05-09T10:06:15.967Z,10.73
2023-05-09T10:08:49.259Z,9.15
2023-05-09T10:11:16.461Z,9.55
2023-05-09T10:13:45.328Z,9.48
2023-05-09T10:16:13.743Z,9.88
2023-05-09T10:18:43.140Z,8.82
2023-05-09T10:21:15.155Z,8.77
2023-05-09T10:23:47.225Z,8.77
2023-05-09T10:26:27.230Z,8.82
2023-05-09T10:29:05.513Z,7.50
2023-05-09T10:31:36.563Z,10.43
2023-05-09T10:34:10.556Z,8.35
2023-05-09T10:36:37.965Z,8.60
2023-05-09T10:39:05.138Z,6.22
2023-05-09T10:41:32.667Z,8.10
2023-05-09T10:44:00.350Z,7.80
2023-05-09T10:46:28.246Z,9.70
2023-05-09T10:48:56.100Z,7.65
2023-05-09T10:51:24.731Z,7.82
2023-05-09T10:53:51.678Z,7.70
2023-05-09T10:56:33.288Z,9.02
2023-05-09T10:59:00.634Z,7.72
2023-05-09T11:01:35.236Z,12.82
2023-05-09T11:04:16.829Z,8.77
2023-05-09T11:06:52.753Z,8.05
2023-05-09T11:09:38.734Z,9.50
2023-05-09T11:12:05.481Z,7.97
2023-05-09T11:14:44.897Z,7.80
2023-05-09T11:17:13.088Z,9.18
2023-05-09T11:19:57.862Z,9.60
2023-05-09T11:22:28.469Z,9.65
2023-05-09T11:25:05.377Z,8.65
2023-05-09T11:27:46.294Z,7.68
2023-05-09T11:30:19.241Z,8.27
2023-05-09T11:32:52.031Z,8.15
2023-05-09T11:35:23.446Z,8.35
2023-05-09T11:38:08.156Z,8.45
2023-05-09T11:40:35.352Z,7.85
2023-05-09T11:43:02.371Z,9.18
2023-05-09T11:45:33.192Z,8.68
2023-05-09T11:48:01.084Z,8.30
2023-05-09T11:50:28.360Z,8.77
2023-05-09T11:52:55.257Z,7.55
2023-05-09T11:55:23.241Z,7.35
2023-05-09T11:57:54.810Z,7.65
2023-05-09T12:00:24.529Z,6.93
2023-05-09T12:02:53.043Z,6.78
2023-05-09T12:05:22.711Z,9.60
2023-05-09T12:07:50.147Z,8.55
2023-05-09T12:10:21.178Z,10.07
2023-05-09T12:12:51.303Z,8.27
2023-05-09T12:15:21.296Z,8.07
2023-05-09T12:18:02.999Z,8.73
2023-05-09T12:20:48.466Z,9.43
2023-05-09T12:23:15.621Z,7.05
2023-05-09T12:25:57.271Z,7.85
2023-05-09T12:28:26.152Z,6.65
2023-05-09T12:30:54.312Z,7.10
2023-05-09T12:33:22.242Z,9.45
2023-05-09T12:36:03.133Z,7.90
2023-05-09T12:38:30.302Z,8.93
2023-05-09T12:41:03.886Z,7.32
2023-05-09T12:43:34.102Z,7.35
2023-05-09T12:46:02.751Z,6.68
2023-05-09T12:48:34.825Z,7.43
2023-05-09T12:51:06.358Z,9.23
2023-05-09T12:53:39.676Z,7.93
2023-05-09T12:56:18.703Z,6.68
2023-05-09T12:58:54.918Z,7.25
2023-05-09T13:01:27.968Z,7.95
2023-05-09T13:04:04.110Z,7.78
2023-05-09T13:06:31.412Z,6.95
2023-05-09T13:09:05.766Z,6.68
2023-05-09T13:11:32.642Z,6.90
2023-05-09T13:13:59.707Z,7.85
2023-05-09T13:16:26.960Z,7.15
2023-05-09T13:18:54.105Z,7.10
2023-05-09T13:21:20.955Z,7.68
2023-05-09T13:23:49.910Z,7.93
2023-05-09T13:26:16.912Z,6.30
2023-05-09T13:28:43.765Z,6.90
2023-05-09T13:31:10.708Z,7.70
2023-05-09T13:33:37.712Z,7.55
2023-05-09T13:36:05.002Z,6.70
2023-05-09T13:38:33.163Z,8.35
2023-05-09T13:41:00.327Z,5.57
2023-05-09T13:43:27.299Z,6.30
2023-05-09T13:45:54.132Z,5.90
2023-05-09T13:48:21.190Z,6.00
2023-05-09T13:50:48.000Z,5.40
2023-05-09T13:53:14.830Z,6.65
2023-05-09T13:55:41.650Z,5.93
2023-05-09T13:58:08.491Z,5.22
2023-05-09T14:00:35.586Z,6.72
2023-05-09T14:03:03.338Z,7.40
2023-05-09T14:05:34.029Z,5.68
2023-05-09T14:08:03.615Z,5.68
2023-05-09T14:10:30.422Z,4.85
2023-05-09T14:12:57.652Z,4.70
2023-05-09T14:15:24.526Z,4.95
2023-05-09T14:17:51.756Z,4.63
2023-05-09T14:20:18.678Z,4.72
2023-05-09T14:22:46.475Z,5.72
2023-05-09T14:25:13.700Z,5.38
2023-05-09T14:27:40.485Z,4.65
2023-05-09T14:30:08.551Z,4.82
2023-05-09T14:32:35.546Z,5.00
2023-05-09T14:35:02.744Z,4.05
2023-05-09T14:37:30.350Z,5.55
2023-05-09T14:39:57.153Z,5.13
2023-05-09T14:42:23.927Z,4.78
2023-05-09T14:44:50.758Z,5.78
2023-05-09T14:47:17.659Z,4.15
2023-05-09T14:49:44.527Z,4.72
2023-05-09T14:52:11.400Z,4.55
2023-05-09T14:54:38.225Z,5.53
2023-05-09T14:57:06.897Z,6.57
2023-05-09T14:59:36.701Z,5.40
2023-05-09T15:02:04.074Z,4.72
2023-05-09T15:04:31.302Z,4.78
2023-05-09T15:06:58.873Z,10.10
2023-05-09T15:09:26.453Z,4.75
2023-05-09T15:11:53.790Z,5.80
2023-05-09T15:14:20.668Z,4.72
2023-05-09T15:16:48.242Z,3.97
2023-05-09T15:19:15.267Z,4.25
2023-05-09T15:21:42.207Z,4.25
2023-05-09T15:24:09.209Z,4.90
2023-05-09T15:26:36.043Z,5.05
2023-05-09T15:29:02.893Z,5.20
2023-05-09T15:31:33.058Z,4.30
2023-05-09T15:34:01.070Z,4.72
2023-05-09T15:36:33.700Z,4.00
2023-05-09T15:39:01.229Z,4.40
2023-05-09T15:41:28.546Z,3.70
2023-05-09T15:43:55.553Z,3.35
2023-05-09T15:46:22.472Z,3.90
2023-05-09T15:48:49.567Z,3.55
2023-05-09T15:51:16.701Z,2.90
2023-05-09T15:53:43.569Z,3.33
2023-05-09T15:56:10.542Z,3.60
2023-05-09T15:58:37.609Z,4.82
2023-05-09T16:01:06.043Z,3.97
2023-05-09T16:03:33.628Z,3.35
2023-05-09T16:06:01.076Z,4.03
2023-05-09T16:08:28.039Z,3.63
2023-05-09T16:10:54.894Z,5.05
2023-05-09T16:13:22.432Z,4.28
2023-05-09T16:15:50.027Z,4.05
2023-05-09T16:18:16.926Z,4.60
2023-05-09T16:20:43.980Z,4.15
2023-05-09T16:23:11.638Z,3.88
2023-05-09T16:25:38.816Z,4.00
2023-05-09T16:28:08.354Z,3.97
2023-05-09T16:30:35.218Z,4.50
2023-05-09T16:33:02.225Z,4.55
2023-05-09T16:35:29.422Z,5.88
2023-05-09T16:37:56.148Z,4.97
2023-05-09T16:40:23.162Z,4.10
2023-05-09T16:42:49.928Z,4.68
2023-05-09T16:45:16.887Z,4.82
2023-05-09T16:47:43.837Z,4.78
2023-05-09T16:50:11.069Z,4.45
2023-05-09T16:52:37.845Z,4.55
2023-05-09T16:55:05.663Z,5.50
2023-05-09T16:57:32.490Z,5.40
2023-05-09T16:59:59.258Z,4.78
2023-05-09T17:02:26.135Z,4.75
2023-05-09T17:04:53.145Z,4.93
2023-05-09T17:07:20.057Z,5.15
2023-05-09T17:09:48.462Z,5.95
2023-05-09T17:12:17.951Z,5.28
2023-05-09T17:14:47.014Z,4.60
2023-05-09T17:17:17.445Z,5.90
2023-05-09T17:19:45.516Z,4.72
2023-05-09T17:22:12.408Z,5.20
2023-05-09T17:24:39.213Z,4.63
2023-05-09T17:27:06.113Z,5.97
2023-05-09T17:29:33.054Z,4.88
2023-05-09T17:32:00.958Z,5.40
2023-05-09T17:34:28.834Z,5.15
2023-05-09T17:36:56.234Z,4.20
2023-05-09T17:39:23.706Z,4.15
2023-05-09T17:41:50.570Z,5.35
2023-05-09T17:44:17.350Z,3.85
2023-05-09T17:46:44.346Z,3.67
2023-05-09T17:49:13.875Z,3.50
2023-05-09T17:51:41.178Z,3.65
2023-05-09T17:54:08.286Z,3.53
2023-05-09T17:56:35.489Z,4.03
2023-05-09T17:59:02.488Z,3.97
2023-05-09T18:01:29.417Z,4.70
2023-05-09T18:03:56.937Z,4.43
2023-05-09T18:06:24.066Z,4.22
2023-05-09T18:08:50.948Z,5.43
2023-05-09T18:11:17.821Z,6.82
2023-05-09T18:13:44.703Z,4.15
2023-05-09T18:16:11.613Z,4.03
2023-05-09T18:18:38.706Z,4.00
2023-05-09T18:21:07.863Z,4.43
2023-05-09T18:23:34.884Z,4.55
2023-05-09T18:26:02.268Z,4.50
2023-05-09T18:28:29.280Z,4.63
2023-05-09T18:30:58.935Z,5.10
2023-05-09T18:33:28.228Z,5.85
2023-05-09T18:35:55.499Z,6.03
2023-05-09T18:38:22.794Z,5.20
2023-05-09T18:40:51.988Z,5.57
2023-05-09T18:43:21.396Z,5.53
2023-05-09T18:45:48.935Z,5.35
2023-05-09T18:48:16.909Z,5.78
2023-05-09T18:50:43.967Z,6.60
2023-05-09T18:53:10.869Z,4.90
2023-05-09T18:55:37.814Z,3.90
2023-05-09T18:58:07.045Z,4.30
2023-05-09T19:00:35.577Z,3.60
2023-05-09T19:03:02.722Z,4.18
2023-05-09T19:05:29.785Z,3.60
2023-05-09T19:07:57.557Z,3.55
2023-05-09T19:10:24.542Z,2.70
2023-05-09T19:12:51.485Z,3.05
2023-05-09T19:15:19.716Z,3.78
2023-05-09T19:17:46.574Z,5.38
2023-05-09T19:20:13.935Z,3.45
2023-05-09T19:22:45.475Z,3.45
2023-05-09T19:25:12.333Z,4.40
2023-05-09T19:27:39.176Z,3.85
2023-05-09T19:30:07.385Z,3.53
2023-05-09T19:32:34.295Z,3.03
2023-05-09T19:35:01.168Z,3.58
2023-05-09T19:37:27.956Z,3.75
2023-05-09T19:39:54.708Z,3.45
2023-05-09T19:42:21.530Z,4.05
2023-05-09T19:44:48.282Z,3.83
2023-05-09T19:47:15.062Z,3.22
2023-05-09T19:49:42.789Z,6.72
2023-05-09T19:52:09.725Z,3.97
2023-05-09T19:54:36.476Z,3.50
2023-05-09T19:57:06.164Z,2.92
2023-05-09T19:59:33.032Z,3.35
2023-05-09T20:01:59.993Z,3.40
2023-05-09T20:04:27.066Z,3.88
2023-05-09T20:06:54.125Z,5.00
2023-05-09T20:09:21.171Z,3.67
2023-05-09T20:11:48.368Z,4.10
2023-05-09T20:14:15.300Z,4.15
2023-05-09T20:16:43.771Z,4.97
2023-05-09T20:19:14.683Z,6.30
2023-05-09T20:21:41.884Z,5.20
2023-05-09T20:24:08.941Z,5.32
2023-05-09T20:26:35.808Z,8.23
2023-05-09T20:29:02.672Z,6.72
2023-05-09T20:31:30.626Z,7.93
2023-05-09T20:33:58.245Z,12.65
2023-05-09T20:36:28.019Z,8.38
2023-05-09T20:38:57.336Z,7.47
2023-05-09T20:41:24.314Z,7.07
2023-05-09T20:43:51.429Z,6.53
2023-05-09T20:46:18.377Z,7.32
2023-05-09T20:48:45.421Z,8.60
2023-05-09T20:51:12.287Z,7.55
2023-05-09T20:53:39.194Z,7.05
2023-05-09T20:56:06.068Z,7.28
2023-05-09T20:58:34.236Z,7.07
2023-05-09T21:01:01.473Z,7.25
2023-05-09T21:03:28.559Z,7.88
2023-05-09T21:05:55.483Z,9.15
2023-05-09T21:08:23.212Z,7.30
2023-05-09T21:10:54.144Z,7.88
2023-05-09T21:13:21.333Z,7.88
2023-05-09T21:15:51.434Z,8.73
2023-05-09T21:18:19.054Z,9.43
2023-05-09T21:20:45.958Z,7.43
2023-05-09T21:23:12.893Z,10.05
2023-05-09T21:25:39.892Z,11.07
2023-05-09T21:28:06.765Z,9.90
2023-05-09T21:30:33.592Z,9.63
2023-05-09T21:33:00.765Z,9.15
2023-05-09T21:35:27.772Z,9.27
2023-05-09T21:37:54.653Z,9.60
2023-05-09T21:40:21.678Z,10.45
2023-05-09T21:42:48.562Z,11.85
2023-05-09T21:45:15.648Z,10.30
2023-05-09T21:47:42.714Z,12.38
2023-05-09T21:50:10.477Z,13.50
2023-05-09T21:52:37.327Z,12.45
2023-05-09T21:55:04.557Z,14.77
2023-05-09T21:57:31.432Z,17.15
2023-05-09T22:00:01.174Z,15.10
2023-05-09T22:02:31.572Z,16.00
2023-05-09T22:04:58.446Z,17.35
2023-05-09T22:07:25.323Z,17.08
2023-05-09T22:09:52.808Z,18.10
2023-05-09T22:12:19.699Z,17.95
2023-05-09T22:14:55.837Z,20.67
2023-05-09T22:17:24.386Z,21.60
2023-05-09T22:19:51.302Z,20.67
2023-05-09T22:22:18.107Z,21.52
2023-05-09T22:24:44.901Z,21.60
2023-05-09T22:27:11.729Z,21.40
2023-05-09T22:29:38.734Z,21.73
2023-05-09T22:32:08.063Z,21.50
2023-05-09T22:34:35.594Z,26.52
2023-05-09T22:37:02.578Z,22.85
2023-05-09T22:39:29.821Z,26.13
2023-05-09T22:41:56.930Z,23.10
2023-05-09T22:44:23.760Z,23.73
2023-05-09T22:46:50.555Z,25.08
2023-05-09T22:49:17.467Z,25.55
2023-05-09T22:51:44.255Z,29.38
2023-05-09T22:54:11.017Z,31.42
2023-05-09T22:56:37.833Z,26.98
2023-05-09T22:59:04.706Z,28.98
2023-05-09T23:01:32.239Z,27.10
2023-05-09T23:03:59.118Z,24.85
2023-05-09T23:06:26.005Z,25.48
2023-05-09T23:08:52.775Z,26.30
2023-05-09T23:11:20.851Z,27.58
2023-05-09T23:13:47.827Z,26.33
2023-05-09T23:16:14.922Z,28.27
2023-05-09T23:18:42.236Z,27.23
2023-05-09T23:21:09.838Z,28.15
2023-05-09T23:23:36.669Z,27.65
2023-05-09T23:26:03.490Z,29.42
2023-05-09T23:28:30.301Z,31.45
2023-05-09T23:30:57.083Z,32.67
2023-05-09T23:33:23.913Z,33.28
2023-05-09T23:35:50.717Z,34.58
2023-05-09T23:38:17.582Z,38.20
2023-05-09T23:40:48.491Z,35.38
2023-05-09T23:43:15.506Z,33.90
2023-05-09T23:45:42.580Z,32.05
2023-05-09T23:48:09.465Z,33.95
2023-05-09T23:50:36.244Z,34.20
2023-05-09T23:53:04.865Z,36.55
2023-05-09T23:55:32.115Z,36.20
2023-05-09T23:58:00.451Z,35.05
